Time;durP1;ratioP1;P1;durP2;ratioP2;P2;SDS_P1;SDS_P2;PMS_P1;PMS_P2;Temp;Humidity;BMP_temperature;BMP_pressure;BME280_temperature;BME280_humidity;BME280_pressure;Samples;Min_cycle;Max_cycle;Signal;HPM_P1;HPM_P2
2023/04/20 00:02:13;;;;;;;29.27;25.42;;;;;;;10.43;100.00;99654.63;4987601;28;20050;-74
2023/04/20 00:04:39;;;;;;;30.25;25.20;;;;;;;10.69;100.00;99728.63;4987768;28;20136;-77
2023/04/20 00:07:05;;;;;;;30.05;24.08;;;;;;;10.49;100.00;99676.41;4985759;28;20074;-75
2023/04/20 00:09:30;;;;;;;29.23;24.65;;;;;;;10.08;100.00;99590.31;4987920;28;20069;-75
2023/04/20 00:11:56;;;;;;;31.45;26.13;;;;;;;10.14;100.00;99599.00;4986183;28;20450;-74
2023/04/20 00:14:21;;;;;;;30.52;25.25;;;;;;;10.31;100.00;99632.03;4988940;28;20022;-76
2023/04/20 00:16:47;;;;;;;26.27;23.38;;;;;;;9.94;100.00;99565.13;4987881;28;20108;-75
2023/04/20 00:19:13;;;;;;;28.35;24.35;;;;;;;10.72;100.00;99711.97;4987924;28;20046;-75
2023/04/20 00:21:38;;;;;;;32.17;23.45;;;;;;;10.56;100.00;99688.56;4983700;28;20223;-74
2023/04/20 00:24:04;;;;;;;28.67;25.65;;;;;;;10.69;100.00;99712.88;4984938;28;20026;-74
2023/04/20 00:26:29;;;;;;;32.97;25.08;;;;;;;10.05;100.00;99587.75;4988006;28;20038;-75
2023/04/20 00:28:55;;;;;;;32.33;25.30;;;;;;;9.89;100.00;99568.69;4987831;28;20039;-76
2023/04/20 00:31:20;;;;;;;34.67;25.33;;;;;;;10.50;100.00;99678.13;4986366;28;20449;-75
2023/04/20 00:33:47;;;;;;;31.15;25.20;;;;;;;10.59;100.00;99694.66;4986635;28;20042;-75
2023/04/20 00:36:12;;;;;;;30.75;24.55;;;;;;;10.68;100.00;99686.69;4983700;28;20050;-75
2023/04/20 00:38:38;;;;;;;29.67;24.50;;;;;;;10.72;100.00;99702.38;4982577;28;20044;-76
2023/04/20 00:41:03;;;;;;;29.70;25.30;;;;;;;10.13;100.00;99602.47;4992682;28;20683;-74
2023/04/20 00:43:29;;;;;;;28.50;24.95;;;;;;;10.13;100.00;99614.72;4987246;28;20054;-75
2023/04/20 00:45:55;;;;;;;27.55;23.80;;;;;;;10.41;100.00;99670.38;5001329;28;20046;-74
2023/04/20 00:48:20;;;;;;;28.75;25.65;;;;;;;10.05;100.00;99622.69;4982876;28;20141;-74
2023/04/20 00:50:47;;;;;;;31.95;26.67;;;;;;;10.49;100.00;99693.91;4988146;28;20034;-75
2023/04/20 00:53:13;;;;;;;29.73;26.42;;;;;;;9.67;100.00;99565.44;4978808;28;20070;-74
2023/04/20 00:55:43;;;;;;;30.77;25.90;;;;;;;9.70;100.00;99570.63;4987330;28;20150;-74
2023/04/20 00:58:10;;;;;;;29.58;26.45;;;;;;;9.69;100.00;99569.78;4990305;28;20129;-76
2023/04/20 01:00:36;;;;;;;30.70;27.15;;;;;;;9.99;100.00;99616.63;4990325;28;20069;-76
2023/04/20 01:03:01;;;;;;;32.50;26.95;;;;;;;10.29;100.00;99674.00;4989079;28;20046;-76
2023/04/20 01:05:27;;;;;;;32.55;26.92;;;;;;;9.77;100.00;99592.41;4986006;28;20022;-75
2023/04/20 01:07:52;;;;;;;29.40;26.20;;;;;;;9.60;100.00;99575.09;4982394;28;20495;-73
2023/04/20 01:10:18;;;;;;;35.55;28.52;;;;;;;9.64;100.00;99589.03;4989147;28;20042;-73
2023/04/20 01:12:44;;;;;;;31.58;28.02;;;;;;;10.28;100.00;99693.25;4994694;28;20057;-73
2023/04/20 01:15:10;;;;;;;39.22;26.60;;;;;;;9.59;100.00;99573.34;4989180;28;20030;-73
2023/04/20 01:17:39;;;;;;;37.28;27.90;;;;;;;10.31;100.00;99697.59;4991258;28;20049;-75
2023/04/20 01:20:08;;;;;;;42.17;26.75;;;;;;;9.69;100.00;99592.47;4990586;28;20507;-73
2023/04/20 01:22:41;;;;;;;33.60;28.40;;;;;;;9.36;100.00;99543.91;4983049;28;20056;-75
2023/04/20 01:25:07;;;;;;;36.90;27.10;;;;;;;10.09;100.00;99663.72;4990603;28;20050;-75
2023/04/20 01:27:33;;;;;;;38.40;27.45;;;;;;;10.26;100.00;99702.00;4990238;28;20042;-74
2023/04/20 01:29:58;;;;;;;37.15;27.73;;;;;;;9.45;100.00;99549.06;4990402;28;20545;-72
2023/04/20 01:32:25;;;;;;;35.28;29.95;;;;;;;10.12;100.00;99665.44;4990647;28;20041;-73
2023/04/20 01:34:50;;;;;;;36.10;28.33;;;;;;;9.77;100.00;99610.75;4986208;28;20066;-73
2023/04/20 01:37:16;;;;;;;35.90;28.92;;;;;;;9.41;100.00;99537.75;4986755;28;20558;-73
2023/04/20 01:39:44;;;;;;;31.77;28.15;;;;;;;9.59;100.00;99564.63;4989933;28;20046;-72
2023/04/20 01:42:10;;;;;;;38.50;29.80;;;;;;;8.92;100.00;99449.22;4989777;28;20030;-75
2023/04/20 01:44:35;;;;;;;36.50;29.45;;;;;;;10.23;100.00;99675.78;4989688;28;20041;-75
2023/04/20 01:47:01;;;;;;;32.28;27.98;;;;;;;9.46;100.00;99535.94;4989988;28;20038;-72
2023/04/20 01:49:26;;;;;;;38.03;30.40;;;;;;;10.21;100.00;99681.06;4990957;28;20141;-75
2023/04/20 01:51:52;;;;;;;35.50;27.65;;;;;;;9.46;100.00;99553.41;4987100;28;20042;-75
2023/04/20 01:54:17;;;;;;;33.50;28.02;;;;;;;9.36;100.00;99546.50;4990605;28;20043;-75
2023/04/20 01:56:43;;;;;;;41.53;31.92;;;;;;;9.86;100.00;99640.34;4990082;28;20430;-76
2023/04/20 01:59:08;;;;;;;33.58;28.95;;;;;;;9.72;100.00;99581.97;4988944;28;20050;-72
2023/04/20 02:01:35;;;;;;;38.42;31.17;;;;;;;10.05;100.00;99656.75;4989529;28;20050;-75
2023/04/20 02:04:00;;;;;;;35.95;28.10;;;;;;;9.98;100.00;99648.97;4989217;28;20536;-73
2023/04/20 02:06:26;;;;;;;40.42;29.83;;;;;;;9.23;100.00;99566.72;4985815;28;20568;-73
2023/04/20 02:08:52;;;;;;;37.78;29.33;;;;;;;9.78;100.00;99630.81;4982651;28;20061;-74
2023/04/20 02:11:18;;;;;;;34.97;29.25;;;;;;;10.00;100.00;99673.41;4991372;28;20026;-74
2023/04/20 02:13:43;;;;;;;42.10;29.13;;;;;;;9.88;100.00;99675.25;4990954;28;20560;-75
2023/04/20 02:16:09;;;;;;;33.70;27.55;;;;;;;9.20;100.00;99541.44;4989731;28;20435;-75
2023/04/20 02:18:36;;;;;;;34.45;28.73;;;;;;;9.98;100.00;99673.41;4986115;28;20042;-73
2023/04/20 02:21:02;;;;;;;35.47;30.00;;;;;;;9.57;100.00;99643.22;4988282;28;20033;-73
2023/04/20 02:23:28;;;;;;;39.33;27.67;;;;;;;9.36;100.00;99635.53;4987402;28;20117;-77
2023/04/20 02:25:53;;;;;;;36.15;30.33;;;;;;;9.48;100.00;99640.66;4989103;28;20121;-75
2023/04/20 02:28:19;;;;;;;37.15;29.30;;;;;;;9.56;100.00;99659.81;4989444;28;20351;-73
2023/04/20 02:30:44;;;;;;;29.40;25.85;;;;;;;8.99;100.00;99563.41;4987615;28;20046;-73
2023/04/20 02:33:10;;;;;;;38.35;29.30;;;;;;;9.47;100.00;99675.59;4988028;28;20033;-75
2023/04/20 02:35:36;;;;;;;33.55;29.70;;;;;;;8.96;100.00;99675.06;4994546;28;20762;-75
2023/04/20 02:38:01;;;;;;;43.55;29.10;;;;;;;8.78;100.00;99655.06;4989752;28;20133;-74
2023/04/20 02:40:27;;;;;;;36.83;31.17;;;;;;;8.78;100.00;99670.78;4989869;28;20030;-73
2023/04/20 02:42:52;;;;;;;44.55;30.15;;;;;;;8.88;100.00;99667.25;4989045;28;20043;-76
2023/04/20 02:45:18;;;;;;;32.20;28.42;;;;;;;8.99;100.00;99662.84;4976550;28;20121;-74
2023/04/20 02:47:43;;;;;;;34.45;28.80;;;;;;;8.02;100.00;99523.81;4993510;28;20036;-75
2023/04/20 02:50:09;;;;;;;37.33;29.58;;;;;;;8.53;100.00;99583.75;4989768;28;20042;-74
2023/04/20 02:52:35;;;;;;;35.60;31.27;;;;;;;7.97;100.00;99531.66;4985795;28;20054;-73
2023/04/20 02:55:01;;;;;;;32.08;27.52;;;;;;;8.06;100.00;99529.91;4993665;28;20047;-76
2023/04/20 02:57:26;;;;;;;39.13;30.20;;;;;;;8.77;100.00;99654.22;4990758;28;20116;-74
2023/04/20 02:59:52;;;;;;;38.65;30.67;;;;;;;8.09;100.00;99549.03;4987221;28;20526;-74
2023/04/20 03:02:17;;;;;;;35.65;31.33;;;;;;;8.15;100.00;99527.25;4989143;28;20130;-75
2023/04/20 03:04:42;;;;;;;36.92;33.05;;;;;;;8.16;100.00;99532.47;4983940;28;20046;-75
2023/04/20 03:07:09;;;;;;;37.00;32.00;;;;;;;8.34;100.00;99528.91;4988813;28;20045;-76
2023/04/20 03:09:37;;;;;;;38.03;29.90;;;;;;;9.02;100.00;99625.31;4987604;28;20494;-75
2023/04/20 03:12:04;;;;;;;34.88;31.27;;;;;;;8.57;100.00;99534.03;4987748;28;20113;-74
2023/04/20 03:14:29;;;;;;;32.30;28.80;;;;;;;9.40;100.00;99668.66;4988918;28;20038;-75
2023/04/20 03:16:55;;;;;;;33.63;29.85;;;;;;;9.32;100.00;99644.28;4987913;28;20399;-73
2023/04/20 03:19:21;;;;;;;35.45;28.73;;;;;;;9.20;100.00;99619.06;4987471;28;20050;-73
2023/04/20 03:21:47;;;;;;;36.80;29.98;;;;;;;9.21;100.00;99616.44;4984010;28;20042;-74
2023/04/20 03:24:12;;;;;;;35.08;29.20;;;;;;;9.51;100.00;99661.59;4986411;28;20423;-75
2023/04/20 03:26:38;;;;;;;36.03;30.70;;;;;;;8.96;100.00;99571.25;4988398;28;20050;-74
2023/04/20 03:29:03;;;;;;;39.05;31.20;;;;;;;9.26;100.00;99609.41;4984639;28;20061;-75
2023/04/20 03:31:29;;;;;;;34.55;30.95;;;;;;;8.92;100.00;99558.19;4988217;28;20038;-73
2023/04/20 03:33:54;;;;;;;46.65;31.23;;;;;;;9.65;100.00;99669.34;4987777;28;20050;-74
2023/04/20 03:36:20;;;;;;;34.75;31.05;;;;;;;9.13;100.00;99573.78;4988002;28;20506;-74
2023/04/20 03:38:45;;;;;;;33.28;28.88;;;;;;;9.00;100.00;99556.41;4988073;28;20129;-76
2023/04/20 03:41:11;;;;;;;34.35;29.75;;;;;;;8.84;100.00;99534.72;4987396;28;20422;-75
2023/04/20 03:43:36;;;;;;;34.20;27.90;;;;;;;9.74;100.00;99687.63;4985309;28;20100;-75
2023/04/20 03:46:02;;;;;;;33.78;29.20;;;;;;;9.79;100.00;99695.44;4987430;28;20402;-77
2023/04/20 03:48:27;;;;;;;31.45;28.15;;;;;;;9.19;100.00;99588.53;4994433;28;20039;-74
2023/04/20 03:50:52;;;;;;;36.03;29.02;;;;;;;9.84;100.00;99698.88;4987918;28;20041;-75
2023/04/20 03:53:18;;;;;;;36.05;29.27;;;;;;;9.60;100.00;99669.41;4980918;28;20035;-75
2023/04/20 03:55:43;;;;;;;34.13;30.58;;;;;;;9.76;100.00;99657.00;4987513;28;20054;-74
2023/04/20 03:58:09;;;;;;;36.08;29.13;;;;;;;9.87;100.00;99685.75;4987389;28;20062;-73
2023/04/20 04:00:34;;;;;;;42.88;32.58;;;;;;;9.89;100.00;99684.00;4987487;28;20862;-74
2023/04/20 04:03:00;;;;;;;33.28;29.83;;;;;;;9.56;100.00;99645.84;4987302;28;20050;-76
2023/04/20 04:05:25;;;;;;;39.38;31.05;;;;;;;8.70;100.00;99555.75;4984317;28;20026;-74
2023/04/20 04:07:51;;;;;;;33.67;30.05;;;;;;;8.84;100.00;99529.50;4987128;28;20056;-74
2023/04/20 04:10:17;;;;;;;37.25;30.05;;;;;;;9.04;100.00;99545.06;4984640;28;20142;-73
2023/04/20 04:12:44;;;;;;;34.40;30.75;;;;;;;9.00;100.00;99540.72;4990084;28;20096;-75
2023/04/20 04:15:10;;;;;;;38.72;31.60;;;;;;;9.76;100.00;99662.25;4987240;28;20039;-75
2023/04/20 04:17:36;;;;;;;36.88;31.75;;;;;;;9.09;100.00;99531.03;4987959;28;20176;-76
2023/04/20 04:20:02;;;;;;;39.42;31.33;;;;;;;9.86;100.00;99652.59;4987472;28;20479;-77
2023/04/20 04:22:28;;;;;;;42.65;32.03;;;;;;;9.07;100.00;99517.09;4980762;28;20097;-74
2023/04/20 04:24:54;;;;;;;35.92;31.45;;;;;;;9.93;100.00;99678.72;4980998;28;20043;-74
2023/04/20 04:27:21;;;;;;;41.03;32.50;;;;;;;9.08;100.00;99571.19;4986585;28;20074;-73
2023/04/20 04:29:48;;;;;;;35.70;31.13;;;;;;;9.37;100.00;99611.97;4987509;28;20426;-74
2023/04/20 04:32:14;;;;;;;36.05;29.65;;;;;;;9.83;100.00;99663.06;4990635;28;20758;-74
2023/04/20 04:34:43;;;;;;;35.58;28.60;;;;;;;10.04;100.00;99678.59;4990721;28;20046;-74
2023/04/20 04:37:12;;;;;;;52.20;40.75;;;;;;;9.32;100.00;99529.09;4990490;28;20407;-74
2023/04/20 04:39:38;;;;;;;38.35;30.48;;;;;;;9.44;100.00;99569.13;5000756;28;20192;-73
2023/04/20 04:42:04;;;;;;;36.90;29.92;;;;;;;9.23;100.00;99545.78;4989281;28;20430;-74
2023/04/20 04:44:30;;;;;;;33.53;28.48;;;;;;;9.53;100.00;99576.03;4990805;28;20035;-74
2023/04/20 04:46:56;;;;;;;34.00;29.15;;;;;;;9.85;100.00;99604.53;4989157;28;20034;-75
2023/04/20 04:49:23;;;;;;;32.90;29.45;;;;;;;10.34;100.00;99668.72;4990779;28;20053;-77
2023/04/20 04:51:49;;;;;;;32.97;29.15;;;;;;;10.01;100.00;99612.25;4985726;28;20049;-75
2023/04/20 04:54:15;;;;;;;35.53;28.55;;;;;;;10.06;100.00;99632.25;4988124;28;20046;-78
2023/04/20 04:56:40;;;;;;;34.42;28.83;;;;;;;9.52;100.00;99524.53;4990747;28;20030;-74
2023/04/20 04:59:06;;;;;;;38.92;31.00;;;;;;;9.71;100.00;99578.47;4990268;28;20061;-75
2023/04/20 05:01:31;;;;;;;31.58;27.10;;;;;;;10.29;100.00;99689.72;4990535;28;20082;-75
2023/04/20 05:03:57;;;;;;;39.65;27.65;;;;;;;9.72;100.00;99555.78;4991332;28;20038;-74
2023/04/20 05:06:22;;;;;;;34.75;28.80;;;;;;;10.23;100.00;99599.75;4984716;28;20034;-75
2023/04/20 05:08:47;;;;;;;33.33;28.67;;;;;;;10.39;100.00;99617.06;4991011;28;20045;-74
2023/04/20 05:11:13;;;;;;;35.75;30.38;;;;;;;10.85;100.00;99697.84;4988314;28;20050;-75
2023/04/20 05:13:38;;;;;;;36.53;29.95;;;;;;;10.85;100.00;99683.84;4992238;28;20062;-75
2023/04/20 05:16:04;;;;;;;43.25;33.47;;;;;;;11.06;100.00;99701.94;4990073;28;20041;-75
2023/04/20 05:18:30;;;;;;;43.33;31.75;;;;;;;10.89;100.00;99706.56;4989749;28;20096;-75
2023/04/20 05:20:56;;;;;;;47.25;34.28;;;;;;;10.92;100.00;99672.38;4982121;28;20042;-75
2023/04/20 05:23:21;;;;;;;44.33;30.85;;;;;;;10.52;100.00;99594.19;4983446;28;20034;-76
2023/04/20 05:25:47;;;;;;;48.30;30.70;;;;;;;9.91;100.00;99488.31;4988058;28;20042;-75
2023/04/20 05:28:12;;;;;;;55.28;28.70;;;;;;;10.34;100.00;99564.69;4989914;28;20055;-76
2023/04/20 05:30:38;;;;;;;30.58;24.25;;;;;;;11.39;100.00;99744.38;4988078;28;20050;-77
2023/04/20 05:33:03;;;;;;;38.88;27.27;;;;;;;10.14;100.00;99535.22;4982729;28;20030;-76
2023/04/20 05:35:29;;;;;;;28.20;24.02;;;;;;;11.26;100.00;99743.69;4985940;28;20593;-75
2023/04/20 05:37:55;;;;;;;34.78;23.73;;;;;;;11.04;100.00;99700.22;4979549;28;20181;-76
2023/04/20 05:40:20;;;;;;;29.60;23.45;;;;;;;11.41;100.00;99777.63;4986780;28;20068;-73
2023/04/20 05:42:46;;;;;;;33.50;23.08;;;;;;;11.47;100.00;99794.19;4988360;28;20117;-76
2023/04/20 05:45:11;;;;;;;32.85;24.63;;;;;;;11.33;100.00;99789.09;4987237;28;20099;-75
2023/04/20 05:47:37;;;;;;;32.20;23.63;;;;;;;10.78;100.00;99667.31;4983496;28;20068;-76
2023/04/20 05:50:03;;;;;;;29.98;23.30;;;;;;;11.49;100.00;99797.66;4981923;28;20069;-79
2023/04/20 05:52:28;;;;;;;27.58;24.20;;;;;;;11.43;100.00;99782.84;4986684;28;20169;-75
2023/04/20 05:54:54;;;;;;;33.13;27.52;;;;;;;11.34;100.00;99814.50;4989136;28;20117;-74
2023/04/20 05:57:20;;;;;;;36.30;30.40;;;;;;;11.03;100.00;99730.88;4984884;28;20518;-75
2023/04/20 05:59:46;;;;;;;37.20;31.80;;;;;;;10.60;100.00;99668.41;4986179;28;20117;-75
2023/04/20 06:02:11;;;;;;;55.22;33.45;;;;;;;10.59;100.00;99669.31;4984501;28;20132;-75
2023/04/20 06:04:37;;;;;;;49.08;39.25;;;;;;;11.43;100.00;99787.25;4978523;28;20486;-73
2023/04/20 06:07:02;;;;;;;43.22;38.63;;;;;;;11.49;100.00;99798.53;4987115;28;20061;-76
2023/04/20 06:09:27;;;;;;;48.50;39.40;;;;;;;10.74;100.00;99653.34;4987486;28;20122;-75
2023/04/20 06:11:53;;;;;;;45.03;36.95;;;;;;;11.61;100.00;99805.34;4992639;28;20033;-75
2023/04/20 06:14:19;;;;;;;57.00;38.70;;;;;;;9.94;100.00;99532.81;4989454;28;20096;-76
2023/04/20 06:16:44;;;;;;;46.00;37.10;;;;;;;11.38;100.00;99768.94;4988131;28;20050;-76
2023/04/20 06:19:10;;;;;;;44.35;29.15;;;;;;;11.75;100.00;99823.56;4988506;28;20050;-76
2023/04/20 06:21:35;;;;;;;51.30;37.25;;;;;;;11.24;100.00;99689.44;4986431;28;20050;-73
2023/04/20 06:24:01;;;;;;;42.83;31.15;;;;;;;11.24;100.00;99669.31;4985200;28;20042;-74
2023/04/20 06:26:27;;;;;;;38.05;26.38;;;;;;;12.12;100.00;99810.75;4989555;28;20034;-77
2023/04/20 06:28:52;;;;;;;42.35;29.90;;;;;;;10.95;100.00;99602.31;4986813;28;20043;-77
2023/04/20 06:31:20;;;;;;;33.90;29.08;;;;;;;12.22;100.00;99824.63;4976598;28;20050;-75
2023/04/20 06:33:46;;;;;;;30.42;26.92;;;;;;;12.02;100.00;99803.94;4986025;28;20049;-75
2023/04/20 06:36:11;;;;;;;29.50;24.05;;;;;;;11.88;100.00;99801.50;4988622;28;20134;-74
2023/04/20 06:38:37;;;;;;;36.83;27.15;;;;;;;11.83;100.00;99822.56;4988855;28;20038;-76
2023/04/20 06:41:02;;;;;;;38.22;25.13;;;;;;;12.04;100.00;99824.03;4986795;28;20502;-74
2023/04/20 06:43:29;;;;;;;35.15;29.75;;;;;;;11.88;100.00;99803.28;4995422;28;20065;-75
2023/04/20 06:45:55;;;;;;;34.15;30.13;;;;;;;11.74;100.00;99762.25;4988178;28;20765;-75
2023/04/20 06:48:21;;;;;;;34.22;28.48;;;;;;;12.03;100.00;99851.25;4993997;28;20116;-76
2023/04/20 06:50:48;;;;;;;40.92;28.90;;;;;;;11.38;100.00;99740.03;4983029;28;20474;-75
2023/04/20 06:53:21;;;;;;;41.28;30.55;;;;;;;11.98;100.00;99870.59;4986889;28;20125;-76
2023/04/20 06:55:47;;;;;;;35.13;29.73;;;;;;;11.28;100.00;99713.00;4987552;28;20202;-76
2023/04/20 06:58:12;;;;;;;32.28;25.63;;;;;;;11.53;100.00;99747.66;4981175;28;20585;-76
2023/04/20 07:00:38;;;;;;;39.72;28.25;;;;;;;12.38;100.00;99888.41;4987344;28;20054;-75
2023/04/20 07:03:03;;;;;;;34.28;30.38;;;;;;;12.27;100.00;99885.06;4987827;28;20046;-75
2023/04/20 07:05:29;;;;;;;37.60;29.58;;;;;;;12.10;100.00;99864.28;4983541;28;20064;-74
2023/04/20 07:07:54;;;;;;;30.98;27.50;;;;;;;12.32;100.00;99905.16;4983804;28;20148;-74
2023/04/20 07:10:20;;;;;;;34.05;27.88;;;;;;;12.37;100.00;99915.63;4989458;28;20093;-73
2023/04/20 07:12:46;;;;;;;25.73;22.85;;;;;;;12.38;100.00;99919.97;4990900;28;20482;-75
2023/04/20 07:15:11;;;;;;;32.38;24.27;;;;;;;11.65;100.00;99803.56;4987571;28;20053;-74
2023/04/20 07:17:37;;;;;;;31.73;26.05;;;;;;;12.42;100.00;99922.53;4988584;28;20550;-74
2023/04/20 07:20:12;;;;;;;28.95;25.48;;;;;;;11.57;100.00;99799.28;4988336;28;20449;-74
2023/04/20 07:22:38;;;;;;;29.30;24.10;;;;;;;11.27;100.00;99813.69;4982039;28;20132;-74
2023/04/20 07:25:06;;;;;;;36.33;28.55;;;;;;;12.28;100.00;99911.34;4986563;28;20073;-74
2023/04/20 07:27:39;;;;;;;29.20;26.15;;;;;;;12.54;100.00;99926.72;4986288;28;20062;-74
2023/04/20 07:30:07;;;;;;;33.83;25.50;;;;;;;12.59;100.00;99921.38;4985969;28;20526;-77
2023/04/20 07:32:33;;;;;;;38.35;25.10;;;;;;;12.03;100.00;99830.22;4988078;28;20475;-73
2023/04/20 07:34:59;;;;;;;37.80;28.23;;;;;;;11.85;100.00;99798.91;4986732;28;20061;-75
2023/04/20 07:37:25;;;;;;;38.63;27.75;;;;;;;12.13;100.00;99844.06;4980171;28;20074;-76
2023/04/20 07:39:52;;;;;;;37.55;27.85;;;;;;;12.43;100.00;99924.28;4976147;28;20183;-75
2023/04/20 07:42:18;;;;;;;42.80;25.88;;;;;;;12.68;100.00;99974.75;4979328;28;20046;-75
2023/04/20 07:44:44;;;;;;;33.22;28.13;;;;;;;12.13;100.00;99964.19;4981998;28;20487;-76
2023/04/20 07:47:10;;;;;;;29.88;26.40;;;;;;;12.56;100.00;99964.44;4986201;28;20054;-73
2023/04/20 07:49:36;;;;;;;35.08;26.17;;;;;;;12.08;100.00;99856.44;4987217;28;20593;-76
2023/04/20 07:52:02;;;;;;;33.50;27.27;;;;;;;12.70;100.00;99964.22;4982145;28;20356;-77
2023/04/20 07:54:28;;;;;;;31.92;26.65;;;;;;;11.97;100.00;99845.19;4982411;28;20097;-76
2023/04/20 07:56:53;;;;;;;35.45;27.15;;;;;;;12.73;100.00;99958.03;4981275;28;20386;-76
2023/04/20 07:59:19;;;;;;;29.67;26.58;;;;;;;12.18;100.00;99857.16;4981391;28;20148;-75
2023/04/20 08:01:45;;;;;;;39.10;27.83;;;;;;;12.25;100.00;99835.13;4979674;28;20077;-75
2023/04/20 08:04:12;;;;;;;34.45;29.38;;;;;;;12.74;100.00;99913.25;4991320;28;20038;-76
2023/04/20 08:06:37;;;;;;;34.58;26.42;;;;;;;12.67;100.00;99953.75;4978046;28;20064;-75
2023/04/20 08:09:02;;;;;;;33.90;26.05;;;;;;;12.30;100.00;99946.41;4976411;28;20402;-76
2023/04/20 08:11:28;;;;;;;38.58;24.85;;;;;;;12.51;100.00;99944.34;4987611;28;20022;-76
2023/04/20 08:13:54;;;;;;;34.95;26.05;;;;;;;12.95;100.00;99950.66;4986697;28;20066;-75
2023/04/20 08:16:19;;;;;;;32.30;26.92;;;;;;;12.40;100.00;99834.84;4985445;28;20157;-75
2023/04/20 08:18:45;;;;;;;35.13;24.92;;;;;;;13.04;100.00;99940.81;4979650;28;20042;-77
2023/04/20 08:21:10;;;;;;;30.73;24.33;;;;;;;13.19;100.00;99944.94;4981183;28;20049;-76
2023/04/20 08:23:36;;;;;;;37.28;26.08;;;;;;;12.27;100.00;99759.69;4981308;28;20027;-76
2023/04/20 08:26:03;;;;;;;56.00;27.15;;;;;;;13.33;100.00;99909.59;4984192;28;20792;-76
2023/04/20 08:28:28;;;;;;;36.28;26.67;;;;;;;13.09;100.00;99867.00;4978209;28;20058;-76
2023/04/20 08:30:54;;;;;;;40.65;25.50;;;;;;;13.22;100.00;99987.03;4983033;28;20081;-74
2023/04/20 08:33:19;;;;;;;36.72;28.15;;;;;;;12.65;100.00;99850.22;4982432;28;20046;-74
2023/04/20 08:35:45;;;;;;;27.13;24.25;;;;;;;12.75;100.00;99840.41;4985775;28;20038;-75
2023/04/20 08:38:10;;;;;;;29.60;26.45;;;;;;;13.33;100.00;99992.16;4983643;28;20165;-75
2023/04/20 08:40:36;;;;;;;33.78;25.05;;;;;;;13.56;100.00;99975.91;4971854;28;20080;-74
2023/04/20 08:43:02;;;;;;;28.05;22.58;;;;;;;13.27;100.00;99922.00;4981669;28;20140;-75
2023/04/20 08:45:29;;;;;;;33.60;22.05;;;;;;;13.42;100.00;99949.81;4981838;28;20100;-74
2023/04/20 08:47:57;;;;;;;32.03;21.92;;;;;;;13.34;100.00;99964.03;4985078;28;20034;-74
2023/04/20 08:50:23;;;;;;;27.85;23.63;;;;;;;12.83;100.00;99863.06;4979423;28;20046;-74
2023/04/20 08:52:48;;;;;;;29.17;23.73;;;;;;;13.29;100.00;99978.16;4977135;28;20062;-75
2023/04/20 08:55:18;;;;;;;28.38;25.13;;;;;;;13.38;100.00;99974.47;4984147;28;20043;-75
2023/04/20 08:57:44;;;;;;;40.65;24.25;;;;;;;13.52;100.00;99942.59;4982421;28;20053;-74
2023/04/20 09:00:10;;;;;;;29.63;26.25;;;;;;;13.29;100.00;99906.13;4982522;28;20034;-74
2023/04/20 09:02:48;;;;;;;27.20;24.40;;;;;;;12.91;100.00;99827.84;4986670;28;20055;-75
2023/04/20 09:05:13;;;;;;;26.83;23.92;;;;;;;13.52;100.00;99950.50;4982814;28;20094;-75
2023/04/20 09:07:39;;;;;;;27.48;24.40;;;;;;;12.98;100.00;99853.16;4981908;28;20047;-73
2023/04/20 09:10:04;;;;;;;33.40;25.40;;;;;;;12.23;100.00;99765.88;4983782;28;20058;-74
2023/04/20 09:12:40;;;;;;;32.60;27.50;;;;;;;13.44;100.00;99928.72;4983949;28;20042;-74
2023/04/20 09:15:06;;;;;;;30.58;27.42;;;;;;;13.34;100.00;99906.06;4983547;28;20118;-75
2023/04/20 09:17:35;;;;;;;28.88;24.88;;;;;;;12.83;100.00;99801.63;4977378;28;20370;-76
2023/04/20 09:20:00;;;;;;;37.85;27.40;;;;;;;12.59;100.00;99781.91;4989333;28;20058;-75
2023/04/20 09:22:33;;;;;;;37.42;28.65;;;;;;;13.42;100.00;99896.25;4984076;28;20798;-75
2023/04/20 09:25:00;;;;;;;;;;;;;;;13.18;100.00;99895.78;4992094;28;20050;-74
2023/04/20 09:27:26;;;;;;;33.70;26.63;;;;;;;12.53;100.00;99805.72;4983300;28;19932;-73
2023/04/20 09:29:58;;;;;;;38.10;29.83;;;;;;;13.18;100.00;99892.25;4985364;28;20108;-75
2023/04/20 09:32:29;;;;;;;33.53;29.98;;;;;;;13.16;100.00;99879.16;4990891;28;20057;-75
2023/04/20 09:34:55;;;;;;;40.30;31.25;;;;;;;13.06;100.00;99836.31;4984004;28;20141;-75
2023/04/20 09:37:21;;;;;;;36.75;30.15;;;;;;;13.10;100.00;99816.03;4977907;28;20078;-74
2023/04/20 09:39:47;;;;;;;35.88;30.60;;;;;;;12.61;100.00;99712.53;4990958;28;20093;-73
2023/04/20 09:42:14;;;;;;;37.75;29.08;;;;;;;12.82;100.00;99763.03;4981339;28;20105;-73
2023/04/20 09:44:40;;;;;;;37.42;32.38;;;;;;;13.54;100.00;99869.63;4989300;28;20169;-73
2023/04/20 09:47:07;;;;;;;35.08;30.60;;;;;;;13.42;100.00;99831.22;4984187;28;20051;-74
2023/04/20 09:49:33;;;;;;;34.95;30.67;;;;;;;12.94;100.00;99732.97;4984871;28;20050;-74
2023/04/20 09:52:03;;;;;;;35.30;31.67;;;;;;;13.72;100.00;99861.34;4987068;28;20172;-74
2023/04/20 09:54:29;;;;;;;41.63;32.60;;;;;;;13.72;100.00;99856.06;4986809;28;20065;-74
2023/04/20 09:56:57;;;;;;;41.28;32.58;;;;;;;13.77;100.00;99841.91;4981627;28;20042;-73
2023/04/20 09:59:23;;;;;;;38.63;30.98;;;;;;;13.64;100.00;99809.66;4987538;28;20030;-75
2023/04/20 10:01:49;;;;;;;37.53;31.00;;;;;;;13.61;100.00;99820.28;4985422;28;20085;-75
2023/04/20 10:04:15;;;;;;;35.30;27.52;;;;;;;13.67;100.00;99834.22;4984827;28;20038;-75
2023/04/20 10:06:52;;;;;;;34.00;27.95;;;;;;;13.59;100.00;99811.53;4978910;28;20138;-76
2023/04/20 10:09:23;;;;;;;37.13;30.73;;;;;;;13.67;100.00;99836.84;4985640;28;20046;-75
2023/04/20 10:11:49;;;;;;;31.75;26.73;;;;;;;13.80;100.00;99833.91;4981256;28;20101;-73
2023/04/20 10:14:15;;;;;;;46.67;31.50;;;;;;;13.91;100.00;99843.31;4989220;28;20510;-74
2023/04/20 10:16:41;;;;;;;43.40;32.22;;;;;;;13.40;100.00;99738.16;4985565;28;20060;-75
2023/04/20 10:19:07;;;;;;;37.85;30.15;;;;;;;13.89;100.00;99831.94;4980419;28;20061;-76
2023/04/20 10:21:45;;;;;;;40.67;29.33;;;;;;;13.80;100.00;99807.56;4986868;28;20050;-76
2023/04/20 10:24:10;;;;;;;40.03;29.10;;;;;;;13.93;100.00;99817.78;4982935;28;20042;-75
2023/04/20 10:26:37;;;;;;;43.85;26.67;;;;;;;13.37;100.00;99729.44;4985700;28;20134;-73
2023/04/20 10:29:02;;;;;;;32.55;25.77;;;;;;;13.34;100.00;99730.38;4979969;28;20089;-73
2023/04/20 10:31:38;;;;;;;43.35;26.73;;;;;;;13.41;100.00;99752.19;4983358;28;20136;-73
2023/04/20 10:34:05;;;;;;;37.00;27.85;;;;;;;14.03;100.00;99815.78;4985701;28;20076;-74
2023/04/20 10:36:33;;;;;;;30.77;25.08;;;;;;;14.22;100.00;99839.09;4988176;28;20053;-74
2023/04/20 10:39:01;;;;;;;32.70;25.10;;;;;;;13.65;100.00;99716.47;4983125;28;20097;-73
2023/04/20 10:41:27;;;;;;;34.70;26.05;;;;;;;13.82;100.00;99743.31;4985153;28;20150;-74
2023/04/20 10:43:52;;;;;;;21.40;16.55;;;;;;;13.46;100.00;99751.19;4981632;28;20494;-73
2023/04/20 10:46:23;;;;;;;19.05;15.50;;;;;;;13.98;100.00;99856.34;4978764;28;20097;-74
2023/04/20 10:49:00;;;;;;;17.92;16.15;;;;;;;14.22;100.00;99881.31;4983906;28;20058;-72
2023/04/20 10:51:27;;;;;;;57.35;19.92;;;;;;;14.19;100.00;99890.19;4980791;28;20074;-74
2023/04/20 10:54:04;;;;;;;64.82;18.83;;;;;;;14.07;100.00;99906.28;4984984;28;20091;-74
2023/04/20 10:56:42;;;;;;;27.45;16.30;;;;;;;14.29;100.00;99923.34;4990550;28;20049;-74
2023/04/20 10:59:10;;;;;;;21.20;15.25;;;;;;;14.36;100.00;99916.16;4985422;28;20085;-76
2023/04/20 11:01:36;;;;;;;16.88;13.05;;;;;;;14.23;100.00;99936.69;4986500;28;20054;-74
2023/04/20 11:04:03;;;;;;;22.98;13.95;;;;;;;14.34;100.00;99941.72;4987527;28;20058;-75
2023/04/20 11:06:30;;;;;;;18.88;14.98;;;;;;;14.39;100.00;99953.03;4986813;28;20124;-74
2023/04/20 11:08:55;;;;;;;13.52;12.07;;;;;;;13.72;100.00;99818.28;4984779;28;20031;-75